Mister T — WDC2491 — position and weather

sailwx.info

Track history (hours):
 
Tides and Currents Weather Stations Pressure Air Temp Water Temp Dewpoint Dewpoint Depression Visibility Wind Speed Wind Dir Waves Ship Positions

Mister T

Owner: Buchanan Marine LP, New Haven, CT. More information available from US FCC via Universal Licensing System and Coast Guard Vessel Documentation Center.

Last reported at 2017-Oct-19 21:59 UTC. Time now 2017-Oct-19 22:03 UTC.
Position N 40°49' W 073°49'.

Length 25 m; draft 3.6 m.

Type: Towing. MMSI: 366993880.

Date/timePositionNaut miles runAvg speedWind from/ knotsBaromVisibWave heightAir tempDewpointWater temp
2017-Oct-19 21:59N 40°49' W 073°49'2 3.2
2017-Oct-19 21:29N 40°48' W 073°51'2 3.7
2017-Oct-19 20:55N 40°46' W 073°50'2 3.7
2017-Oct-19 20:29N 40°47' W 073°52'2 3.1
2017-Oct-19 20:00N 40°48' W 073°50'1 2.0
2017-Oct-19 19:29N 40°48' W 073°51'2 3.9
2017-Oct-19 18:57N 40°46' W 073°50'0 0.0
2017-Oct-19 18:24N 40°46' W 073°50'0 0.6
2017-Oct-19 18:00N 40°46' W 073°50'2 4.1
2017-Oct-19 17:30N 40°48' W 073°51'1 3.0
2017-Oct-19 17:00N 40°49' W 073°49'2 4.2
2017-Oct-19 16:28N 40°47' W 073°52'2 3.1
2017-Oct-19 15:55N 40°46' W 073°51'2 5.3
2017-Oct-19 15:29N 40°48' W 073°50'2 0.6
2017-Oct-19 12:12N 40°49' W 073°47'1 3.4
2017-Oct-19 11:55N 40°48' W 073°48'1 1.5
2017-Oct-19 11:28N 40°48' W 073°49'4 1.0
2017-Oct-19 07:33N 40°51' W 073°45'0 5.7
2017-Oct-19 07:29N 40°51' W 073°46'3 5.2
2017-Oct-19 06:56N 40°48' W 073°47'1 2.8
2017-Oct-19 06:24N 40°48' W 073°49'1 2.3
2017-Oct-19 05:59N 40°48' W 073°50'1 2.0
2017-Oct-19 05:29N 40°48' W 073°49'0 0.4
2017-Oct-19 04:59N 40°49' W 073°49'2 3.3
2017-Oct-19 04:30N 40°48' W 073°51'2 4.0
2017-Oct-19 03:58N 40°46' W 073°50'2 3.3
2017-Oct-19 03:29N 40°47' W 073°52'4 1.2
2017-Oct-19 00:23N 40°49' W 073°47'2 5.2
2017-Oct-18 23:59N 40°48' W 073°50'1 1.1
2017-Oct-18 23:29N 40°48' W 073°51'0 0.0
2017-Oct-18 22:57N 40°48' W 073°51'0 0.0
2017-Oct-18 22:30N 40°48' W 073°51'0 0.1
2017-Oct-18 21:59N 40°48' W 073°51'0 0.5
2017-Oct-18 21:27N 40°48' W 073°51'2 5.7
2017-Oct-18 21:00N 40°48' W 073°54'3 5.3
2017-Oct-18 20:30N 40°46' W 073°57'3 5.3
2017-Oct-18 20:00N 40°44' W 073°58'2 3.7
2017-Oct-18 19:30N 40°42' W 073°60'2 3.9
2017-Oct-18 19:00N 40°41' W 074°01'2 3.3
2017-Oct-18 18:30N 40°40' W 074°03'2 4.2
2017-Oct-18 18:00N 40°40' W 074°00'0 0.3
2017-Oct-18 17:30N 40°40' W 074°01'0 0.5
2017-Oct-18 17:00N 40°40' W 074°01'2 3.4
2017-Oct-18 16:30N 40°40' W 074°03'1 2.8
2017-Oct-18 16:00N 40°39' W 074°01'1 1.1
2017-Oct-18 15:30N 40°40' W 074°01'2 3.2
2017-Oct-18 15:00N 40°40' W 074°03'0 0.4
2017-Oct-18 14:00N 40°40' W 074°03'1 2.7
2017-Oct-18 13:30N 40°41' W 074°01'1 2.1
2017-Oct-18 13:00N 40°41' W 074°00'0 0.3
2017-Oct-18 12:30N 40°41' W 074°00'2 4.5
2017-Oct-18 12:00N 40°40' W 074°03'0 0.9
2017-Oct-18 11:30N 40°40' W 074°03'0 0.0
2017-Oct-18 11:00N 40°40' W 074°03'0 0.0
2017-Oct-18 10:30N 40°40' W 074°03'0 0.0
2017-Oct-18 10:00N 40°40' W 074°03'0 0.0
2017-Oct-18 09:30N 40°40' W 074°03'0 0.0
2017-Oct-18 09:00N 40°40' W 074°03'0 0.1
2017-Oct-18 08:30N 40°40' W 074°03'1 2.7
2017-Oct-18 08:00N 40°40' W 074°02'1 2.8
2017-Oct-18 07:30N 40°40' W 073°60'1 1.9
2017-Oct-18 07:00N 40°40' W 074°01'0 0.3
2017-Oct-18 06:30N 40°40' W 074°01'1 2.5
2017-Oct-18 06:00N 40°41' W 074°00'2 3.6
2017-Oct-18 05:30N 40°40' W 074°02'1 2.0
2017-Oct-18 05:00N 40°40' W 074°03'0 0.6
2017-Oct-18 04:30N 40°40' W 074°03'4 7.2
2017-Oct-18 04:00N 40°42' W 073°60'4 8.0
2017-Oct-18 03:30N 40°46' W 073°57'4 7.3
2017-Oct-18 02:59N 40°48' W 073°53'3 5.3
2017-Oct-18 02:30N 40°48' W 073°49'2 2.3
2017-Oct-18 01:36N 40°49' W 073°52'1 5.2
2017-Oct-18 01:29N 40°48' W 073°52'2 5.2
2017-Oct-18 01:00N 40°49' W 073°49'0 0.1
2017-Oct-18 00:30N 40°49' W 073°49'0 0.0
2017-Oct-18 00:00N 40°49' W 073°49'0 0.0
2017-Oct-17 23:26N 40°49' W 073°49'0 0.0
2017-Oct-17 22:57N 40°48' W 073°49'0 0.0
2017-Oct-17 22:30N 40°48' W 073°49'2 4.8
2017-Oct-17 22:00N 40°48' W 073°52'2 4.0
2017-Oct-17 21:30N 40°46' W 073°51'0 0.9
2017-Oct-17 20:59N 40°46' W 073°51'2 3.5
2017-Oct-17 20:30N 40°48' W 073°51'1 2.4
2017-Oct-17 19:59N 40°48' W 073°49'3 6.1
2017-Oct-17 19:30N 40°46' W 073°51'0 0.1
2017-Oct-17 19:00N 40°46' W 073°51'2 4.1
2017-Oct-17 18:29N 40°48' W 073°51'1 2.2
2017-Oct-17 18:00N 40°48' W 073°49'2 4.8
2017-Oct-17 17:30N 40°46' W 073°51'1 1.9
2017-Oct-17 17:00N 40°46' W 073°50'2 4.5
2017-Oct-17 16:30N 40°48' W 073°51'1 3.0
2017-Oct-17 16:00N 40°48' W 073°49'0 0.0
2017-Oct-17 15:30N 40°48' W 073°49'0 0.0
2017-Oct-17 14:57N 40°48' W 073°49'0 0.3
2017-Oct-17 14:27N 40°48' W 073°49'2 0.6
2017-Oct-17 11:34N 40°50' W 073°48'0 5.7
2017-Oct-17 11:29N 40°49' W 073°47'1 1.3
2017-Oct-17 10:26N 40°49' W 073°49'0 0.0
2017-Oct-17 10:00N 40°49' W 073°49'0 0.0
2017-Oct-17 09:29N 40°49' W 073°49'0 0.0
2017-Oct-17 08:40N 40°49' W 073°49'0 0.0
2017-Oct-17 08:29N 40°49' W 073°49'1 2.5
2017-Oct-17 08:00N 40°48' W 073°50'3 5.4
2017-Oct-17 07:30N 40°48' W 073°54'3 5.3
2017-Oct-17 07:00N 40°46' W 073°57'2 4.3
2017-Oct-17 06:30N 40°45' W 073°58'2 3.4
2017-Oct-17 06:00N 40°43' W 073°58'1 2.6
2017-Oct-17 05:30N 40°42' W 073°60'2 3.3
2017-Oct-17 05:01N 40°41' W 074°01'1 2.6
2017-Oct-17 04:30N 40°41' W 074°03'1 1.5
2017-Oct-17 04:00N 40°40' W 074°03'0 0.0
2017-Oct-17 03:30N 40°40' W 074°03'0 0.0
2017-Oct-17 03:00N 40°40' W 074°03'0 0.0
2017-Oct-17 02:30N 40°40' W 074°03'0 0.0
2017-Oct-17 02:00N 40°40' W 074°03'0 0.0
2017-Oct-17 01:30N 40°40' W 074°03'0 0.0
2017-Oct-17 01:00N 40°40' W 074°03'0 0.0
2017-Oct-17 00:30N 40°40' W 074°03'1 1.6
2017-Oct-17 00:00N 40°40' W 074°03'2 3.9
2017-Oct-16 23:30N 40°40' W 074°00'1 1.2
2017-Oct-16 23:00N 40°40' W 074°01'2 3.9
2017-Oct-16 22:30N 40°40' W 074°03'0 0.1
2017-Oct-16 22:00N 40°40' W 074°03'0 0.9
2017-Oct-16 21:30N 40°40' W 074°03'2 4.7
2017-Oct-16 21:00N 40°40' W 074°00'1 1.3
2017-Oct-16 20:30N 40°40' W 074°01'2 3.2
2017-Oct-16 20:00N 40°41' W 074°00'1 2.6
2017-Oct-16 19:30N 40°41' W 074°02'1 2.2
2017-Oct-16 19:00N 40°40' W 074°03'1 1.2
2017-Oct-16 18:30N 40°40' W 074°03'3 5.6
2017-Oct-16 18:00N 40°42' W 074°01'3 6.1
2017-Oct-16 17:30N 40°44' W 073°58'4 7.0
2017-Oct-16 17:00N 40°47' W 073°55'3 5.9
2017-Oct-16 16:30N 40°48' W 073°52'2 3.5
2017-Oct-16 16:00N 40°48' W 073°49'2 3.6
2017-Oct-16 15:30N 40°49' W 073°47'5 0.1
2017-Oct-14 22:04N 40°53' W 073°44'0 5.5
2017-Oct-14 22:00N 40°52' W 073°44'3 5.5
2017-Oct-14 21:30N 40°50' W 073°46'3 3.4
2017-Oct-14 20:44N 40°49' W 073°49'0 1.0
2017-Oct-14 20:30N 40°48' W 073°49'0 0.2
2017-Oct-14 19:59N 40°48' W 073°49'2 4.6
2017-Oct-14 19:30N 40°48' W 073°52'3 5.7
2017-Oct-14 19:00N 40°47' W 073°55'2 4.4
2017-Oct-14 18:28N 40°45' W 073°58'3 6.1
2017-Oct-14 18:00N 40°43' W 073°59'3 5.8
2017-Oct-14 17:30N 40°41' W 074°01'2 3.3
2017-Oct-14 17:00N 40°40' W 074°03'0 0.5
2017-Oct-14 16:30N 40°40' W 074°04'2 5.0
2017-Oct-14 16:00N 40°39' W 074°07'0 0.0
2017-Oct-14 15:29N 40°39' W 074°07'0 0.0
2017-Oct-14 14:53N 40°39' W 074°07'0 0.0
2017-Oct-14 14:22N 40°39' W 074°07'3 7.0
2017-Oct-14 14:00N 40°40' W 074°03'0 0.1
2017-Oct-14 13:30N 40°40' W 074°03'0 0.0
2017-Oct-14 13:00N 40°40' W 074°03'2 3.2
2017-Oct-14 12:30N 40°41' W 074°02'3 6.7
2017-Oct-14 12:00N 40°43' W 073°58'4 7.3
2017-Oct-14 11:28N 40°47' W 073°56'3 7.2
2017-Oct-14 10:59N 40°48' W 073°52'1 1.0
2017-Oct-14 10:09N 40°49' W 073°52'1 5.0
2017-Oct-14 10:00N 40°48' W 073°52'2 3.2
2017-Oct-14 09:14N 40°49' W 073°49'0 0.0
2017-Oct-14 08:54N 40°49' W 073°49'3 6.6
2017-Oct-14 08:30N 40°47' W 073°52'1 2.9
2017-Oct-14 08:00N 40°46' W 073°51'2 4.2
2017-Oct-14 07:29N 40°48' W 073°51'1 1.1
2017-Oct-14 07:00N 40°48' W 073°51'0 0.1
2017-Oct-14 06:27N 40°48' W 073°50'2 4.1
2017-Oct-14 05:52N 40°48' W 073°54'2 5.7
2017-Oct-14 05:27N 40°47' W 073°56'3 5.8
2017-Oct-14 05:00N 40°44' W 073°58'2 4.5
2017-Oct-14 04:30N 40°42' W 073°59'2 4.1
2017-Oct-14 04:00N 40°41' W 074°01'1 2.8
2017-Oct-14 03:29N 40°40' W 074°03'1 1.3
2017-Oct-14 03:00N 40°40' W 074°03'0 0.2
2017-Oct-14 02:30N 40°40' W 074°03'0 0.1
2017-Oct-14 02:00N 40°40' W 074°03'2 4.5
2017-Oct-14 01:30N 40°41' W 074°01'3 6.9
2017-Oct-14 01:00N 40°44' W 073°58'4 8.0
2017-Oct-14 00:28N 40°47' W 073°55'3 6.3
2017-Oct-13 23:59N 40°48' W 073°51'0 0.7
2017-Oct-13 23:30N 40°48' W 073°51'2 3.9
2017-Oct-13 22:58N 40°46' W 073°50'2 4.1
2017-Oct-13 22:28N 40°48' W 073°51'1 2.5
2017-Oct-13 22:00N 40°48' W 073°50'3 5.2
2017-Oct-13 21:30N 40°46' W 073°51'1 1.0
2017-Oct-13 20:57N 40°46' W 073°50'1 1.3
2017-Oct-13 20:30N 40°46' W 073°51'2 4.8
2017-Oct-13 20:00N 40°48' W 073°51'0 0.5
2017-Oct-13 19:30N 40°48' W 073°50'2 4.0
2017-Oct-13 18:57N 40°46' W 073°50'0 0.2
2017-Oct-13 18:26N 40°46' W 073°50'1 3.3
2017-Oct-13 18:00N 40°47' W 073°52'1 3.0
2017-Oct-13 17:30N 40°48' W 073°51'0 0.8
2017-Oct-13 17:00N 40°48' W 073°50'2 4.4
2017-Oct-13 16:30N 40°46' W 073°50'1 1.6
2017-Oct-13 16:00N 40°46' W 073°51'2 4.9
2017-Oct-13 15:30N 40°48' W 073°49'0 0.3
2017-Oct-13 14:58N 40°48' W 073°49'0 0.0
2017-Oct-13 14:30N 40°48' W 073°49'0 0.1
2017-Oct-13 14:00N 40°48' W 073°49'0 0.1
2017-Oct-13 13:29N 40°48' W 073°49'0 0.3
2017-Oct-13 13:00N 40°48' W 073°49'0 0.0
2017-Oct-13 12:22N 40°48' W 073°49'0 0.6
2017-Oct-13 11:59N 40°48' W 073°49'0 0.6
2017-Oct-13 11:30N 40°48' W 073°50'2 0.6
2017-Oct-13 08:43N 40°49' W 073°47'1 5.5
2017-Oct-13 08:29N 40°48' W 073°48'1 1.0
2017-Oct-13 07:57N 40°48' W 073°49'0 0.5
2017-Oct-13 07:30N 40°48' W 073°49'2 4.6
2017-Oct-13 07:00N 40°47' W 073°52'2 3.1
2017-Oct-13 06:27N 40°46' W 073°50'2 3.5
2017-Oct-13 06:00N 40°47' W 073°52'2 3.8
2017-Oct-13 05:29N 40°48' W 073°49'1 1.3
2017-Oct-13 05:00N 40°49' W 073°49'0 0.8
2017-Oct-13 04:27N 40°48' W 073°49'2 5.4
2017-Oct-13 04:00N 40°48' W 073°52'3 4.9
2017-Oct-13 03:29N 40°47' W 073°55'2 4.8
2017-Oct-13 03:00N 40°45' W 073°58'2 4.0
2017-Oct-13 02:30N 40°43' W 073°58'2 3.0
2017-Oct-13 02:00N 40°42' W 073°60'2 3.2
2017-Oct-13 01:29N 40°41' W 074°01'1 2.8
2017-Oct-13 01:00N 40°40' W 074°02'1 1.6
2017-Oct-13 00:30N 40°40' W 074°03'1 1.9
2017-Oct-13 00:00N 40°40' W 074°02'1 1.2
2017-Oct-12 23:30N 40°40' W 074°01'1 2.5
2017-Oct-12 23:00N 40°40' W 074°03'0 0.5
2017-Oct-12 22:30N 40°40' W 074°03'6 6.1
2017-Oct-12 21:30N 40°45' W 073°58'4 7.4
2017-Oct-12 20:59N 40°47' W 073°55'3 5.9
2017-Oct-12 20:30N 40°48' W 073°51'1 2.5
2017-Oct-12 19:58N 40°48' W 073°49'2 4.5
2017-Oct-12 19:29N 40°47' W 073°52'1 2.9
2017-Oct-12 18:59N 40°46' W 073°50'0 0.1
2017-Oct-12 18:29N 40°46' W 073°50'0 0.7
2017-Oct-12 18:00N 40°46' W 073°51'2 4.2
2017-Oct-12 17:30N 40°48' W 073°51'2 3.7
2017-Oct-12 17:00N 40°49' W 073°49'2 3.7
2017-Oct-12 16:30N 40°48' W 073°51'2 2.7
2017-Oct-12 15:43N 40°46' W 073°50'1 3.2
2017-Oct-12 15:29N 40°46' W 073°51'2 4.0
2017-Oct-12 15:00N 40°48' W 073°50'1 1.2
2017-Oct-12 14:21N 40°48' W 073°49'1 2.4
2017-Oct-12 13:55N 40°48' W 073°48'1 0.2
2017-Oct-12 07:23N 40°49' W 073°48'2 0.9
2017-Oct-12 05:39N 40°48' W 073°49'1 9.6
2017-Oct-12 05:30N 40°48' W 073°51'2 2.7
2017-Oct-12 04:42N 40°46' W 073°50'0 1.8
2017-Oct-12 04:30N 40°46' W 073°51'2 4.4
2017-Oct-12 03:59N 40°48' W 073°51'0 0.7
2017-Oct-12 03:30N 40°48' W 073°51'3 5.2
2017-Oct-12 03:00N 40°48' W 073°55'3 5.8
2017-Oct-12 02:30N 40°45' W 073°57'2 4.7
2017-Oct-12 02:00N 40°43' W 073°58'2 3.9
2017-Oct-12 01:30N 40°42' W 074°00'2 3.5
2017-Oct-12 01:00N 40°41' W 074°02'1 2.2
2017-Oct-12 00:30N 40°40' W 074°03'0 0.9
2017-Oct-12 00:00N 40°40' W 074°03'2 3.0
2017-Oct-11 23:30N 40°41' W 074°02'4 7.0
2017-Oct-11 23:00N 40°43' W 073°58'4 7.9
2017-Oct-11 22:30N 40°47' W 073°56'3 6.6
2017-Oct-11 21:59N 40°48' W 073°52'2 3.6
2017-Oct-11 21:28N 40°48' W 073°50'2 0.5
2017-Oct-11 18:05N 40°49' W 073°47'1 5.7
2017-Oct-11 17:57N 40°48' W 073°47'2 3.7
2017-Oct-11 17:30N 40°48' W 073°49'0 0.3
2017-Oct-11 17:00N 40°48' W 073°49'14 0.8
2017-Oct-11 00:00N 40°40' W 074°03'1 2.2
2017-Oct-10 23:30N 40°41' W 074°02'3 6.2
2017-Oct-10 23:00N 40°43' W 073°59'4 7.3
2017-Oct-10 22:30N 40°46' W 073°57'4 7.0
2017-Oct-10 22:00N 40°48' W 073°53'3 5.8
2017-Oct-10 21:30N 40°48' W 073°50'1 1.7
2017-Oct-10 21:00N 40°48' W 073°51'1 1.1
2017-Oct-10 20:28N 40°48' W 073°51'3 1.2
2017-Oct-10 17:49N 40°49' W 073°48'1 3.2
2017-Oct-10 17:23N 40°48' W 073°49'0 0.4
2017-Oct-10 17:00N 40°49' W 073°49'0 0.8
2017-Oct-10 16:30N 40°48' W 073°49'2 4.1
2017-Oct-10 16:00N 40°47' W 073°52'2 1.9
2017-Oct-10 15:08N 40°46' W 073°50'0 3.0
2017-Oct-10 14:59N 40°46' W 073°51'3 3.1
2017-Oct-10 14:00N 40°48' W 073°49'3 5.3
2017-Oct-10 13:30N 40°47' W 073°51'1 1.5
2017-Oct-10 12:43N 40°46' W 073°50'1 5.8
2017-Oct-10 12:30N 40°47' W 073°51'3 3.6
2017-Oct-10 11:46N 40°48' W 073°49'0 0.0
2017-Oct-10 11:24N 40°48' W 073°49'0 0.0
2017-Oct-10 11:00N 40°48' W 073°49'0 0.0
2017-Oct-10 10:30N 40°48' W 073°49'0 0.0
2017-Oct-10 09:59N 40°48' W 073°49'0 0.1
2017-Oct-10 09:30N 40°48' W 073°49'0 0.1
2017-Oct-10 08:59N 40°48' W 073°49'0 0.0
2017-Oct-10 08:21N 40°48' W 073°49'1 3.0
2017-Oct-10 07:56N 40°48' W 073°47'1 0.5
2017-Oct-10 05:37N 40°49' W 073°48'1 5.2
2017-Oct-10 05:23N 40°48' W 073°47'1 0.3
2017-Oct-09 23:53N 40°48' W 073°49'0 0.0
2017-Oct-09 23:19N 40°49' W 073°49'0 0.9
2017-Oct-09 22:49N 40°48' W 073°50'  
Track history (hours):
 
Tides and Currents Weather Stations Pressure Air Temp Water Temp Dewpoint Dewpoint Depression Visibility Wind Speed Wind Dir Waves Ship Positions

Mister T

Owner: Buchanan Marine LP, New Haven, CT. More information available from US FCC via Universal Licensing System and Coast Guard Vessel Documentation Center.

Last reported at 2017-Oct-19 21:59 UTC. Time now 2017-Oct-19 22:03 UTC.
Position N 40°49' W 073°49'.

Length 25 m; draft 3.6 m.

Type: Towing. MMSI: 366993880.

Date/timePositionNaut miles runAvg speedWind from/ knotsBaromVisibWave heightAir tempDewpointWater temp
2017-Oct-19 21:59N 40°49' W 073°49'2 3.2
2017-Oct-19 21:29N 40°48' W 073°51'2 3.7
2017-Oct-19 20:55N 40°46' W 073°50'2 3.7
2017-Oct-19 20:29N 40°47' W 073°52'2 3.1
2017-Oct-19 20:00N 40°48' W 073°50'1 2.0
2017-Oct-19 19:29N 40°48' W 073°51'2 3.9
2017-Oct-19 18:57N 40°46' W 073°50'0 0.0
2017-Oct-19 18:24N 40°46' W 073°50'0 0.6
2017-Oct-19 18:00N 40°46' W 073°50'2 4.1
2017-Oct-19 17:30N 40°48' W 073°51'1 3.0
2017-Oct-19 17:00N 40°49' W 073°49'2 4.2
2017-Oct-19 16:28N 40°47' W 073°52'2 3.1
2017-Oct-19 15:55N 40°46' W 073°51'2 5.3
2017-Oct-19 15:29N 40°48' W 073°50'2 0.6
2017-Oct-19 12:12N 40°49' W 073°47'1 3.4
2017-Oct-19 11:55N 40°48' W 073°48'1 1.5
2017-Oct-19 11:28N 40°48' W 073°49'4 1.0
2017-Oct-19 07:33N 40°51' W 073°45'0 5.7
2017-Oct-19 07:29N 40°51' W 073°46'3 5.2
2017-Oct-19 06:56N 40°48' W 073°47'1 2.8
2017-Oct-19 06:24N 40°48' W 073°49'1 2.3
2017-Oct-19 05:59N 40°48' W 073°50'1 2.0
2017-Oct-19 05:29N 40°48' W 073°49'0 0.4
2017-Oct-19 04:59N 40°49' W 073°49'2 3.3
2017-Oct-19 04:30N 40°48' W 073°51'2 4.0
2017-Oct-19 03:58N 40°46' W 073°50'2 3.3
2017-Oct-19 03:29N 40°47' W 073°52'4 1.2
2017-Oct-19 00:23N 40°49' W 073°47'2 5.2
2017-Oct-18 23:59N 40°48' W 073°50'1 1.1
2017-Oct-18 23:29N 40°48' W 073°51'0 0.0
2017-Oct-18 22:57N 40°48' W 073°51'0 0.0
2017-Oct-18 22:30N 40°48' W 073°51'0 0.1
2017-Oct-18 21:59N 40°48' W 073°51'0 0.5
2017-Oct-18 21:27N 40°48' W 073°51'2 5.7
2017-Oct-18 21:00N 40°48' W 073°54'3 5.3
2017-Oct-18 20:30N 40°46' W 073°57'3 5.3
2017-Oct-18 20:00N 40°44' W 073°58'2 3.7
2017-Oct-18 19:30N 40°42' W 073°60'2 3.9
2017-Oct-18 19:00N 40°41' W 074°01'2 3.3
2017-Oct-18 18:30N 40°40' W 074°03'2 4.2
2017-Oct-18 18:00N 40°40' W 074°00'0 0.3
2017-Oct-18 17:30N 40°40' W 074°01'0 0.5
2017-Oct-18 17:00N 40°40' W 074°01'2 3.4
2017-Oct-18 16:30N 40°40' W 074°03'1 2.8
2017-Oct-18 16:00N 40°39' W 074°01'1 1.1
2017-Oct-18 15:30N 40°40' W 074°01'2 3.2
2017-Oct-18 15:00N 40°40' W 074°03'0 0.4
2017-Oct-18 14:00N 40°40' W 074°03'1 2.7
2017-Oct-18 13:30N 40°41' W 074°01'1 2.1
2017-Oct-18 13:00N 40°41' W 074°00'0 0.3
2017-Oct-18 12:30N 40°41' W 074°00'2 4.5
2017-Oct-18 12:00N 40°40' W 074°03'0 0.9
2017-Oct-18 11:30N 40°40' W 074°03'0 0.0
2017-Oct-18 11:00N 40°40' W 074°03'0 0.0
2017-Oct-18 10:30N 40°40' W 074°03'0 0.0
2017-Oct-18 10:00N 40°40' W 074°03'0 0.0
2017-Oct-18 09:30N 40°40' W 074°03'0 0.0
2017-Oct-18 09:00N 40°40' W 074°03'0 0.1
2017-Oct-18 08:30N 40°40' W 074°03'1 2.7
2017-Oct-18 08:00N 40°40' W 074°02'1 2.8
2017-Oct-18 07:30N 40°40' W 073°60'1 1.9
2017-Oct-18 07:00N 40°40' W 074°01'0 0.3
2017-Oct-18 06:30N 40°40' W 074°01'1 2.5
2017-Oct-18 06:00N 40°41' W 074°00'2 3.6
2017-Oct-18 05:30N 40°40' W 074°02'1 2.0
2017-Oct-18 05:00N 40°40' W 074°03'0 0.6
2017-Oct-18 04:30N 40°40' W 074°03'4 7.2
2017-Oct-18 04:00N 40°42' W 073°60'4 8.0
2017-Oct-18 03:30N 40°46' W 073°57'4 7.3
2017-Oct-18 02:59N 40°48' W 073°53'3 5.3
2017-Oct-18 02:30N 40°48' W 073°49'2 2.3
2017-Oct-18 01:36N 40°49' W 073°52'1 5.2
2017-Oct-18 01:29N 40°48' W 073°52'2 5.2
2017-Oct-18 01:00N 40°49' W 073°49'0 0.1
2017-Oct-18 00:30N 40°49' W 073°49'0 0.0
2017-Oct-18 00:00N 40°49' W 073°49'0 0.0
2017-Oct-17 23:26N 40°49' W 073°49'0 0.0
2017-Oct-17 22:57N 40°48' W 073°49'0 0.0
2017-Oct-17 22:30N 40°48' W 073°49'2 4.8
2017-Oct-17 22:00N 40°48' W 073°52'2 4.0
2017-Oct-17 21:30N 40°46' W 073°51'0 0.9
2017-Oct-17 20:59N 40°46' W 073°51'2 3.5
2017-Oct-17 20:30N 40°48' W 073°51'1 2.4
2017-Oct-17 19:59N 40°48' W 073°49'3 6.1
2017-Oct-17 19:30N 40°46' W 073°51'0 0.1
2017-Oct-17 19:00N 40°46' W 073°51'2 4.1
2017-Oct-17 18:29N 40°48' W 073°51'1 2.2
2017-Oct-17 18:00N 40°48' W 073°49'2 4.8
2017-Oct-17 17:30N 40°46' W 073°51'1 1.9
2017-Oct-17 17:00N 40°46' W 073°50'2 4.5
2017-Oct-17 16:30N 40°48' W 073°51'1 3.0
2017-Oct-17 16:00N 40°48' W 073°49'0 0.0
2017-Oct-17 15:30N 40°48' W 073°49'0 0.0
2017-Oct-17 14:57N 40°48' W 073°49'0 0.3
2017-Oct-17 14:27N 40°48' W 073°49'2 0.6
2017-Oct-17 11:34N 40°50' W 073°48'0 5.7
2017-Oct-17 11:29N 40°49' W 073°47'1 1.3
2017-Oct-17 10:26N 40°49' W 073°49'0 0.0
2017-Oct-17 10:00N 40°49' W 073°49'0 0.0
2017-Oct-17 09:29N 40°49' W 073°49'0 0.0
2017-Oct-17 08:40N 40°49' W 073°49'0 0.0
2017-Oct-17 08:29N 40°49' W 073°49'1 2.5
2017-Oct-17 08:00N 40°48' W 073°50'3 5.4
2017-Oct-17 07:30N 40°48' W 073°54'3 5.3
2017-Oct-17 07:00N 40°46' W 073°57'2 4.3
2017-Oct-17 06:30N 40°45' W 073°58'2 3.4
2017-Oct-17 06:00N 40°43' W 073°58'1 2.6
2017-Oct-17 05:30N 40°42' W 073°60'2 3.3
2017-Oct-17 05:01N 40°41' W 074°01'1 2.6
2017-Oct-17 04:30N 40°41' W 074°03'1 1.5
2017-Oct-17 04:00N 40°40' W 074°03'0 0.0
2017-Oct-17 03:30N 40°40' W 074°03'0 0.0
2017-Oct-17 03:00N 40°40' W 074°03'0 0.0
2017-Oct-17 02:30N 40°40' W 074°03'0 0.0
2017-Oct-17 02:00N 40°40' W 074°03'0 0.0
2017-Oct-17 01:30N 40°40' W 074°03'0 0.0
2017-Oct-17 01:00N 40°40' W 074°03'0 0.0
2017-Oct-17 00:30N 40°40' W 074°03'1 1.6
2017-Oct-17 00:00N 40°40' W 074°03'2 3.9
2017-Oct-16 23:30N 40°40' W 074°00'1 1.2
2017-Oct-16 23:00N 40°40' W 074°01'2 3.9
2017-Oct-16 22:30N 40°40' W 074°03'0 0.1
2017-Oct-16 22:00N 40°40' W 074°03'0 0.9
2017-Oct-16 21:30N 40°40' W 074°03'2 4.7
2017-Oct-16 21:00N 40°40' W 074°00'1 1.3
2017-Oct-16 20:30N 40°40' W 074°01'2 3.2
2017-Oct-16 20:00N 40°41' W 074°00'1 2.6
2017-Oct-16 19:30N 40°41' W 074°02'1 2.2
2017-Oct-16 19:00N 40°40' W 074°03'1 1.2
2017-Oct-16 18:30N 40°40' W 074°03'3 5.6
2017-Oct-16 18:00N 40°42' W 074°01'3 6.1
2017-Oct-16 17:30N 40°44' W 073°58'4 7.0
2017-Oct-16 17:00N 40°47' W 073°55'3 5.9
2017-Oct-16 16:30N 40°48' W 073°52'2 3.5
2017-Oct-16 16:00N 40°48' W 073°49'2 3.6
2017-Oct-16 15:30N 40°49' W 073°47'5 0.1
2017-Oct-14 22:04N 40°53' W 073°44'0 5.5
2017-Oct-14 22:00N 40°52' W 073°44'3 5.5
2017-Oct-14 21:30N 40°50' W 073°46'3 3.4
2017-Oct-14 20:44N 40°49' W 073°49'0 1.0
2017-Oct-14 20:30N 40°48' W 073°49'0 0.2
2017-Oct-14 19:59N 40°48' W 073°49'2 4.6
2017-Oct-14 19:30N 40°48' W 073°52'3 5.7
2017-Oct-14 19:00N 40°47' W 073°55'2 4.4
2017-Oct-14 18:28N 40°45' W 073°58'3 6.1
2017-Oct-14 18:00N 40°43' W 073°59'3 5.8
2017-Oct-14 17:30N 40°41' W 074°01'2 3.3
2017-Oct-14 17:00N 40°40' W 074°03'0 0.5
2017-Oct-14 16:30N 40°40' W 074°04'2 5.0
2017-Oct-14 16:00N 40°39' W 074°07'0 0.0
2017-Oct-14 15:29N 40°39' W 074°07'0 0.0
2017-Oct-14 14:53N 40°39' W 074°07'0 0.0
2017-Oct-14 14:22N 40°39' W 074°07'3 7.0
2017-Oct-14 14:00N 40°40' W 074°03'0 0.1
2017-Oct-14 13:30N 40°40' W 074°03'0 0.0
2017-Oct-14 13:00N 40°40' W 074°03'2 3.2
2017-Oct-14 12:30N 40°41' W 074°02'3 6.7
2017-Oct-14 12:00N 40°43' W 073°58'4 7.3
2017-Oct-14 11:28N 40°47' W 073°56'3 7.2
2017-Oct-14 10:59N 40°48' W 073°52'1 1.0
2017-Oct-14 10:09N 40°49' W 073°52'1 5.0
2017-Oct-14 10:00N 40°48' W 073°52'2 3.2
2017-Oct-14 09:14N 40°49' W 073°49'0 0.0
2017-Oct-14 08:54N 40°49' W 073°49'3 6.6
2017-Oct-14 08:30N 40°47' W 073°52'1 2.9
2017-Oct-14 08:00N 40°46' W 073°51'2 4.2
2017-Oct-14 07:29N 40°48' W 073°51'1 1.1
2017-Oct-14 07:00N 40°48' W 073°51'0 0.1
2017-Oct-14 06:27N 40°48' W 073°50'2 4.1
2017-Oct-14 05:52N 40°48' W 073°54'2 5.7
2017-Oct-14 05:27N 40°47' W 073°56'3 5.8
2017-Oct-14 05:00N 40°44' W 073°58'2 4.5
2017-Oct-14 04:30N 40°42' W 073°59'2 4.1
2017-Oct-14 04:00N 40°41' W 074°01'1 2.8
2017-Oct-14 03:29N 40°40' W 074°03'1 1.3
2017-Oct-14 03:00N 40°40' W 074°03'0 0.2
2017-Oct-14 02:30N 40°40' W 074°03'0 0.1
2017-Oct-14 02:00N 40°40' W 074°03'2 4.5
2017-Oct-14 01:30N 40°41' W 074°01'3 6.9
2017-Oct-14 01:00N 40°44' W 073°58'4 8.0
2017-Oct-14 00:28N 40°47' W 073°55'3 6.3
2017-Oct-13 23:59N 40°48' W 073°51'0 0.7
2017-Oct-13 23:30N 40°48' W 073°51'2 3.9
2017-Oct-13 22:58N 40°46' W 073°50'2 4.1
2017-Oct-13 22:28N 40°48' W 073°51'1 2.5
2017-Oct-13 22:00N 40°48' W 073°50'3 5.2
2017-Oct-13 21:30N 40°46' W 073°51'1 1.0
2017-Oct-13 20:57N 40°46' W 073°50'1 1.3
2017-Oct-13 20:30N 40°46' W 073°51'2 4.8
2017-Oct-13 20:00N 40°48' W 073°51'0 0.5
2017-Oct-13 19:30N 40°48' W 073°50'2 4.0
2017-Oct-13 18:57N 40°46' W 073°50'0 0.2
2017-Oct-13 18:26N 40°46' W 073°50'1 3.3
2017-Oct-13 18:00N 40°47' W 073°52'1 3.0
2017-Oct-13 17:30N 40°48' W 073°51'0 0.8
2017-Oct-13 17:00N 40°48' W 073°50'2 4.4
2017-Oct-13 16:30N 40°46' W 073°50'1 1.6
2017-Oct-13 16:00N 40°46' W 073°51'2 4.9
2017-Oct-13 15:30N 40°48' W 073°49'0 0.3
2017-Oct-13 14:58N 40°48' W 073°49'0 0.0
2017-Oct-13 14:30N 40°48' W 073°49'0 0.1
2017-Oct-13 14:00N 40°48' W 073°49'0 0.1
2017-Oct-13 13:29N 40°48' W 073°49'0 0.3
2017-Oct-13 13:00N 40°48' W 073°49'0 0.0
2017-Oct-13 12:22N 40°48' W 073°49'0 0.6
2017-Oct-13 11:59N 40°48' W 073°49'0 0.6
2017-Oct-13 11:30N 40°48' W 073°50'2 0.6
2017-Oct-13 08:43N 40°49' W 073°47'1 5.5
2017-Oct-13 08:29N 40°48' W 073°48'1 1.0
2017-Oct-13 07:57N 40°48' W 073°49'0 0.5
2017-Oct-13 07:30N 40°48' W 073°49'2 4.6
2017-Oct-13 07:00N 40°47' W 073°52'2 3.1
2017-Oct-13 06:27N 40°46' W 073°50'2 3.5
2017-Oct-13 06:00N 40°47' W 073°52'2 3.8
2017-Oct-13 05:29N 40°48' W 073°49'1 1.3
2017-Oct-13 05:00N 40°49' W 073°49'0 0.8
2017-Oct-13 04:27N 40°48' W 073°49'2 5.4
2017-Oct-13 04:00N 40°48' W 073°52'3 4.9
2017-Oct-13 03:29N 40°47' W 073°55'2 4.8
2017-Oct-13 03:00N 40°45' W 073°58'2 4.0
2017-Oct-13 02:30N 40°43' W 073°58'2 3.0
2017-Oct-13 02:00N 40°42' W 073°60'2 3.2
2017-Oct-13 01:29N 40°41' W 074°01'1 2.8
2017-Oct-13 01:00N 40°40' W 074°02'1 1.6
2017-Oct-13 00:30N 40°40' W 074°03'1 1.9
2017-Oct-13 00:00N 40°40' W 074°02'1 1.2
2017-Oct-12 23:30N 40°40' W 074°01'1 2.5
2017-Oct-12 23:00N 40°40' W 074°03'0 0.5
2017-Oct-12 22:30N 40°40' W 074°03'6 6.1
2017-Oct-12 21:30N 40°45' W 073°58'4 7.4
2017-Oct-12 20:59N 40°47' W 073°55'3 5.9
2017-Oct-12 20:30N 40°48' W 073°51'1 2.5
2017-Oct-12 19:58N 40°48' W 073°49'2 4.5
2017-Oct-12 19:29N 40°47' W 073°52'1 2.9
2017-Oct-12 18:59N 40°46' W 073°50'0 0.1
2017-Oct-12 18:29N 40°46' W 073°50'0 0.7
2017-Oct-12 18:00N 40°46' W 073°51'2 4.2
2017-Oct-12 17:30N 40°48' W 073°51'2 3.7
2017-Oct-12 17:00N 40°49' W 073°49'2 3.7
2017-Oct-12 16:30N 40°48' W 073°51'2 2.7
2017-Oct-12 15:43N 40°46' W 073°50'1 3.2
2017-Oct-12 15:29N 40°46' W 073°51'2 4.0
2017-Oct-12 15:00N 40°48' W 073°50'1 1.2
2017-Oct-12 14:21N 40°48' W 073°49'1 2.4
2017-Oct-12 13:55N 40°48' W 073°48'1 0.2
2017-Oct-12 07:23N 40°49' W 073°48'2 0.9
2017-Oct-12 05:39N 40°48' W 073°49'1 9.6
2017-Oct-12 05:30N 40°48' W 073°51'2 2.7
2017-Oct-12 04:42N 40°46' W 073°50'0 1.8
2017-Oct-12 04:30N 40°46' W 073°51'2 4.4
2017-Oct-12 03:59N 40°48' W 073°51'0 0.7
2017-Oct-12 03:30N 40°48' W 073°51'3 5.2
2017-Oct-12 03:00N 40°48' W 073°55'3 5.8
2017-Oct-12 02:30N 40°45' W 073°57'2 4.7
2017-Oct-12 02:00N 40°43' W 073°58'2 3.9
2017-Oct-12 01:30N 40°42' W 074°00'2 3.5
2017-Oct-12 01:00N 40°41' W 074°02'1 2.2
2017-Oct-12 00:30N 40°40' W 074°03'0 0.9
2017-Oct-12 00:00N 40°40' W 074°03'2 3.0
2017-Oct-11 23:30N 40°41' W 074°02'4 7.0
2017-Oct-11 23:00N 40°43' W 073°58'4 7.9
2017-Oct-11 22:30N 40°47' W 073°56'3 6.6
2017-Oct-11 21:59N 40°48' W 073°52'2 3.6
2017-Oct-11 21:28N 40°48' W 073°50'2 0.5
2017-Oct-11 18:05N 40°49' W 073°47'1 5.7
2017-Oct-11 17:57N 40°48' W 073°47'2 3.7
2017-Oct-11 17:30N 40°48' W 073°49'0 0.3
2017-Oct-11 17:00N 40°48' W 073°49'14 0.8
2017-Oct-11 00:00N 40°40' W 074°03'1 2.2
2017-Oct-10 23:30N 40°41' W 074°02'3 6.2
2017-Oct-10 23:00N 40°43' W 073°59'4 7.3
2017-Oct-10 22:30N 40°46' W 073°57'4 7.0
2017-Oct-10 22:00N 40°48' W 073°53'3 5.8
2017-Oct-10 21:30N 40°48' W 073°50'1 1.7
2017-Oct-10 21:00N 40°48' W 073°51'1 1.1
2017-Oct-10 20:28N 40°48' W 073°51'3 1.2
2017-Oct-10 17:49N 40°49' W 073°48'1 3.2
2017-Oct-10 17:23N 40°48' W 073°49'0 0.4
2017-Oct-10 17:00N 40°49' W 073°49'0 0.8
2017-Oct-10 16:30N 40°48' W 073°49'2 4.1
2017-Oct-10 16:00N 40°47' W 073°52'2 1.9
2017-Oct-10 15:08N 40°46' W 073°50'0 3.0
2017-Oct-10 14:59N 40°46' W 073°51'3 3.1
2017-Oct-10 14:00N 40°48' W 073°49'3 5.3
2017-Oct-10 13:30N 40°47' W 073°51'1 1.5
2017-Oct-10 12:43N 40°46' W 073°50'1 5.8
2017-Oct-10 12:30N 40°47' W 073°51'3 3.6
2017-Oct-10 11:46N 40°48' W 073°49'0 0.0
2017-Oct-10 11:24N 40°48' W 073°49'0 0.0
2017-Oct-10 11:00N 40°48' W 073°49'0 0.0
2017-Oct-10 10:30N 40°48' W 073°49'0 0.0
2017-Oct-10 09:59N 40°48' W 073°49'0 0.1
2017-Oct-10 09:30N 40°48' W 073°49'0 0.1
2017-Oct-10 08:59N 40°48' W 073°49'0 0.0
2017-Oct-10 08:21N 40°48' W 073°49'1 3.0
2017-Oct-10 07:56N 40°48' W 073°47'1 0.5
2017-Oct-10 05:37N 40°49' W 073°48'1 5.2
2017-Oct-10 05:23N 40°48' W 073°47'1 0.3
2017-Oct-09 23:53N 40°48' W 073°49'0 0.0
2017-Oct-09 23:19N 40°49' W 073°49'0 0.9
2017-Oct-09 22:49N 40°48' W 073°50'  

Dump ship's entire track history